sensor_id;sensor_type;location;lat;lon;timestamp;temperature;humidity
67379;DHT22;54262;44.642;-0.974;2023-05-16T00:01:56;14.30;99.90
67379;DHT22;54262;44.642;-0.974;2023-05-16T00:04:21;13.80;99.90
67379;DHT22;54262;44.642;-0.974;2023-05-16T00:06:48;14.10;99.90
67379;DHT22;54262;44.642;-0.974;2023-05-16T00:09:13;14.30;99.90
67379;DHT22;54262;44.642;-0.974;2023-05-16T00:11:39;14.00;99.90
67379;DHT22;54262;44.642;-0.974;2023-05-16T00:14:05;13.70;99.90
67379;DHT22;54262;44.642;-0.974;2023-05-16T00:16:30;13.90;99.90
67379;DHT22;54262;44.642;-0.974;2023-05-16T00:18:57;14.30;99.90
67379;DHT22;54262;44.642;-0.974;2023-05-16T00:21:24;14.70;99.90
67379;DHT22;54262;44.642;-0.974;2023-05-16T00:23:49;14.30;99.90
67379;DHT22;54262;44.642;-0.974;2023-05-16T00:26:17;14.10;99.90
67379;DHT22;54262;44.642;-0.974;2023-05-16T00:28:43;14.30;99.90
67379;DHT22;54262;44.642;-0.974;2023-05-16T00:31:09;14.10;99.90
67379;DHT22;54262;44.642;-0.974;2023-05-16T00:33:34;13.60;99.90
67379;DHT22;54262;44.642;-0.974;2023-05-16T00:36:00;14.00;99.90
67379;DHT22;54262;44.642;-0.974;2023-05-16T00:38:26;13.70;99.90
67379;DHT22;54262;44.642;-0.974;2023-05-16T00:40:52;13.40;99.90
67379;DHT22;54262;44.642;-0.974;2023-05-16T00:43:17;13.20;99.90
67379;DHT22;54262;44.642;-0.974;2023-05-16T00:45:45;13.20;99.90
67379;DHT22;54262;44.642;-0.974;2023-05-16T00:48:14;13.40;99.90
67379;DHT22;54262;44.642;-0.974;2023-05-16T00:50:40;13.10;99.90
67379;DHT22;54262;44.642;-0.974;2023-05-16T00:53:06;13.00;99.90
67379;DHT22;54262;44.642;-0.974;2023-05-16T00:55:31;13.00;99.90
67379;DHT22;54262;44.642;-0.974;2023-05-16T00:57:57;13.50;99.90
67379;DHT22;54262;44.642;-0.974;2023-05-16T01:00:24;14.20;99.90
67379;DHT22;54262;44.642;-0.974;2023-05-16T01:02:50;13.80;99.90
67379;DHT22;54262;44.642;-0.974;2023-05-16T01:05:21;13.70;99.90
67379;DHT22;54262;44.642;-0.974;2023-05-16T01:07:46;13.50;99.90
67379;DHT22;54262;44.642;-0.974;2023-05-16T01:10:12;13.30;99.90
67379;DHT22;54262;44.642;-0.974;2023-05-16T01:15:28;13.50;99.90
67379;DHT22;54262;44.642;-0.974;2023-05-16T01:20:52;13.40;99.90
67379;DHT22;54262;44.642;-0.974;2023-05-16T01:23:32;13.50;99.90
67379;DHT22;54262;44.642;-0.974;2023-05-16T01:26:26;13.60;99.90
67379;DHT22;54262;44.642;-0.974;2023-05-16T01:28:52;13.40;99.90
67379;DHT22;54262;44.642;-0.974;2023-05-16T01:31:19;13.50;99.90
67379;DHT22;54262;44.642;-0.974;2023-05-16T01:33:45;14.00;99.90
67379;DHT22;54262;44.642;-0.974;2023-05-16T01:36:25;13.50;99.90
67379;DHT22;54262;44.642;-0.974;2023-05-16T01:39:14;13.20;99.90
67379;DHT22;54262;44.642;-0.974;2023-05-16T01:44:30;13.10;99.90
67379;DHT22;54262;44.642;-0.974;2023-05-16T01:47:01;13.10;99.90
67379;DHT22;54262;44.642;-0.974;2023-05-16T01:50:09;13.20;99.90
67379;DHT22;54262;44.642;-0.974;2023-05-16T01:52:49;13.40;99.90
67379;DHT22;54262;44.642;-0.974;2023-05-16T01:58:04;13.40;99.90
67379;DHT22;54262;44.642;-0.974;2023-05-16T02:00:31;13.10;99.90
67379;DHT22;54262;44.642;-0.974;2023-05-16T02:02:57;13.00;99.90
67379;DHT22;54262;44.642;-0.974;2023-05-16T02:05:22;12.90;99.90
67379;DHT22;54262;44.642;-0.974;2023-05-16T02:07:48;12.80;99.90
67379;DHT22;54262;44.642;-0.974;2023-05-16T02:10:14;12.60;99.90
67379;DHT22;54262;44.642;-0.974;2023-05-16T02:12:40;12.60;99.90
67379;DHT22;54262;44.642;-0.974;2023-05-16T02:15:06;13.00;99.90
67379;DHT22;54262;44.642;-0.974;2023-05-16T02:17:32;12.70;99.90
67379;DHT22;54262;44.642;-0.974;2023-05-16T02:19:57;12.70;99.90
67379;DHT22;54262;44.642;-0.974;2023-05-16T02:22:24;12.60;99.90
67379;DHT22;54262;44.642;-0.974;2023-05-16T02:24:49;12.50;99.90
67379;DHT22;54262;44.642;-0.974;2023-05-16T02:27:15;12.40;99.90
67379;DHT22;54262;44.642;-0.974;2023-05-16T02:29:40;12.30;99.90
67379;DHT22;54262;44.642;-0.974;2023-05-16T02:32:06;12.30;99.90
67379;DHT22;54262;44.642;-0.974;2023-05-16T02:34:32;12.40;99.90
67379;DHT22;54262;44.642;-0.974;2023-05-16T02:36:58;12.40;99.90
67379;DHT22;54262;44.642;-0.974;2023-05-16T02:39:23;12.50;99.90
67379;DHT22;54262;44.642;-0.974;2023-05-16T02:41:49;12.10;99.90
67379;DHT22;54262;44.642;-0.974;2023-05-16T02:44:14;12.50;99.90
67379;DHT22;54262;44.642;-0.974;2023-05-16T02:46:40;12.20;99.90
67379;DHT22;54262;44.642;-0.974;2023-05-16T02:49:08;12.00;99.90
67379;DHT22;54262;44.642;-0.974;2023-05-16T02:51:36;12.30;99.90
67379;DHT22;54262;44.642;-0.974;2023-05-16T02:54:02;12.30;99.90
67379;DHT22;54262;44.642;-0.974;2023-05-16T02:56:27;12.30;99.90
67379;DHT22;54262;44.642;-0.974;2023-05-16T02:58:54;12.20;99.90
67379;DHT22;54262;44.642;-0.974;2023-05-16T03:01:20;12.30;99.90
67379;DHT22;54262;44.642;-0.974;2023-05-16T03:03:46;12.60;99.90
67379;DHT22;54262;44.642;-0.974;2023-05-16T03:06:11;12.90;99.90
67379;DHT22;54262;44.642;-0.974;2023-05-16T03:08:37;12.20;99.90
67379;DHT22;54262;44.642;-0.974;2023-05-16T03:11:03;11.90;99.90
67379;DHT22;54262;44.642;-0.974;2023-05-16T03:13:29;11.90;99.90
67379;DHT22;54262;44.642;-0.974;2023-05-16T03:15:55;12.10;99.90
67379;DHT22;54262;44.642;-0.974;2023-05-16T03:18:21;12.20;99.90
67379;DHT22;54262;44.642;-0.974;2023-05-16T03:20:47;12.30;99.90
67379;DHT22;54262;44.642;-0.974;2023-05-16T03:23:12;11.90;99.90
67379;DHT22;54262;44.642;-0.974;2023-05-16T03:25:38;11.80;99.90
67379;DHT22;54262;44.642;-0.974;2023-05-16T03:28:07;11.70;99.90
67379;DHT22;54262;44.642;-0.974;2023-05-16T03:30:33;11.70;99.90
67379;DHT22;54262;44.642;-0.974;2023-05-16T03:32:59;11.70;99.90
67379;DHT22;54262;44.642;-0.974;2023-05-16T03:35:26;11.70;99.90
67379;DHT22;54262;44.642;-0.974;2023-05-16T03:37:51;11.60;99.90
67379;DHT22;54262;44.642;-0.974;2023-05-16T03:40:17;11.90;99.90
67379;DHT22;54262;44.642;-0.974;2023-05-16T03:42:43;11.60;99.90
67379;DHT22;54262;44.642;-0.974;2023-05-16T03:45:09;11.50;99.90
67379;DHT22;54262;44.642;-0.974;2023-05-16T03:47:35;11.60;99.90
67379;DHT22;54262;44.642;-0.974;2023-05-16T03:50:04;11.40;99.90
67379;DHT22;54262;44.642;-0.974;2023-05-16T03:52:37;11.30;99.90
67379;DHT22;54262;44.642;-0.974;2023-05-16T03:55:03;11.20;99.90
67379;DHT22;54262;44.642;-0.974;2023-05-16T03:57:30;11.70;99.90
67379;DHT22;54262;44.642;-0.974;2023-05-16T03:59:56;11.50;99.90
67379;DHT22;54262;44.642;-0.974;2023-05-16T04:02:22;11.20;99.90
67379;DHT22;54262;44.642;-0.974;2023-05-16T04:04:47;11.10;99.90
67379;DHT22;54262;44.642;-0.974;2023-05-16T04:07:13;11.10;99.90
67379;DHT22;54262;44.642;-0.974;2023-05-16T04:09:39;11.00;99.90
67379;DHT22;54262;44.642;-0.974;2023-05-16T04:12:05;11.10;99.90
67379;DHT22;54262;44.642;-0.974;2023-05-16T04:14:31;10.90;99.90
67379;DHT22;54262;44.642;-0.974;2023-05-16T04:16:58;10.90;99.90
67379;DHT22;54262;44.642;-0.974;2023-05-16T04:19:24;10.90;99.90
67379;DHT22;54262;44.642;-0.974;2023-05-16T04:21:50;11.00;99.90
67379;DHT22;54262;44.642;-0.974;2023-05-16T04:24:17;10.90;99.90
67379;DHT22;54262;44.642;-0.974;2023-05-16T04:26:43;10.80;99.90
67379;DHT22;54262;44.642;-0.974;2023-05-16T04:29:08;11.10;99.90
67379;DHT22;54262;44.642;-0.974;2023-05-16T04:31:34;11.00;99.90
67379;DHT22;54262;44.642;-0.974;2023-05-16T04:34:01;10.90;99.90
67379;DHT22;54262;44.642;-0.974;2023-05-16T04:36:27;10.60;99.90
67379;DHT22;54262;44.642;-0.974;2023-05-16T04:38:55;10.80;99.90
67379;DHT22;54262;44.642;-0.974;2023-05-16T04:41:21;10.80;99.90
67379;DHT22;54262;44.642;-0.974;2023-05-16T04:43:48;10.70;99.90
67379;DHT22;54262;44.642;-0.974;2023-05-16T04:46:14;10.60;99.90
67379;DHT22;54262;44.642;-0.974;2023-05-16T04:48:42;10.70;99.90
67379;DHT22;54262;44.642;-0.974;2023-05-16T04:51:10;10.90;99.90
67379;DHT22;54262;44.642;-0.974;2023-05-16T04:53:37;10.80;99.90
67379;DHT22;54262;44.642;-0.974;2023-05-16T04:56:03;10.90;99.90
67379;DHT22;54262;44.642;-0.974;2023-05-16T04:58:30;11.30;99.90
67379;DHT22;54262;44.642;-0.974;2023-05-16T05:00:56;11.10;99.90
67379;DHT22;54262;44.642;-0.974;2023-05-16T05:03:22;11.30;99.90
67379;DHT22;54262;44.642;-0.974;2023-05-16T05:05:48;11.40;99.90
67379;DHT22;54262;44.642;-0.974;2023-05-16T05:08:14;11.30;99.90
67379;DHT22;54262;44.642;-0.974;2023-05-16T05:10:40;11.50;99.90
67379;DHT22;54262;44.642;-0.974;2023-05-16T05:13:06;11.40;99.90
67379;DHT22;54262;44.642;-0.974;2023-05-16T05:15:32;11.20;99.90
67379;DHT22;54262;44.642;-0.974;2023-05-16T05:17:58;11.20;99.90
67379;DHT22;54262;44.642;-0.974;2023-05-16T05:20:23;11.40;99.90
67379;DHT22;54262;44.642;-0.974;2023-05-16T05:22:49;11.40;99.90
67379;DHT22;54262;44.642;-0.974;2023-05-16T05:25:15;11.20;99.90
67379;DHT22;54262;44.642;-0.974;2023-05-16T05:27:41;11.30;99.90
67379;DHT22;54262;44.642;-0.974;2023-05-16T05:30:07;11.30;99.90
67379;DHT22;54262;44.642;-0.974;2023-05-16T05:32:32;11.20;99.90
67379;DHT22;54262;44.642;-0.974;2023-05-16T05:34:58;11.10;99.90
67379;DHT22;54262;44.642;-0.974;2023-05-16T05:37:25;11.10;99.90
67379;DHT22;54262;44.642;-0.974;2023-05-16T05:39:50;11.40;99.90
67379;DHT22;54262;44.642;-0.974;2023-05-16T05:42:16;11.40;99.90
67379;DHT22;54262;44.642;-0.974;2023-05-16T05:44:42;11.20;99.90
67379;DHT22;54262;44.642;-0.974;2023-05-16T05:47:07;11.30;99.90
67379;DHT22;54262;44.642;-0.974;2023-05-16T05:49:33;11.50;99.90
67379;DHT22;54262;44.642;-0.974;2023-05-16T05:52:02;11.50;99.90
67379;DHT22;54262;44.642;-0.974;2023-05-16T05:54:32;11.30;99.90
67379;DHT22;54262;44.642;-0.974;2023-05-16T05:56:58;11.40;99.90
67379;DHT22;54262;44.642;-0.974;2023-05-16T05:59:23;11.30;99.90
67379;DHT22;54262;44.642;-0.974;2023-05-16T06:01:49;11.50;99.90
67379;DHT22;54262;44.642;-0.974;2023-05-16T06:04:19;11.40;99.90
67379;DHT22;54262;44.642;-0.974;2023-05-16T06:06:44;11.30;99.90
67379;DHT22;54262;44.642;-0.974;2023-05-16T06:09:10;11.80;99.90
67379;DHT22;54262;44.642;-0.974;2023-05-16T06:11:37;11.50;99.90
67379;DHT22;54262;44.642;-0.974;2023-05-16T06:14:02;11.80;99.90
67379;DHT22;54262;44.642;-0.974;2023-05-16T06:16:28;12.60;99.90
67379;DHT22;54262;44.642;-0.974;2023-05-16T06:18:53;13.00;99.90
67379;DHT22;54262;44.642;-0.974;2023-05-16T06:21:19;13.40;99.90
67379;DHT22;54262;44.642;-0.974;2023-05-16T06:23:45;13.20;99.90
67379;DHT22;54262;44.642;-0.974;2023-05-16T06:26:11;13.30;99.90
67379;DHT22;54262;44.642;-0.974;2023-05-16T06:28:36;13.30;99.90
67379;DHT22;54262;44.642;-0.974;2023-05-16T06:31:02;13.80;99.90
67379;DHT22;54262;44.642;-0.974;2023-05-16T06:33:27;14.40;99.90
67379;DHT22;54262;44.642;-0.974;2023-05-16T06:35:53;14.20;99.90
67379;DHT22;54262;44.642;-0.974;2023-05-16T06:38:19;14.00;99.90
67379;DHT22;54262;44.642;-0.974;2023-05-16T06:40:45;13.70;99.90
67379;DHT22;54262;44.642;-0.974;2023-05-16T06:43:11;13.50;99.90
67379;DHT22;54262;44.642;-0.974;2023-05-16T06:45:37;13.40;99.90
67379;DHT22;54262;44.642;-0.974;2023-05-16T06:48:03;14.40;99.90
67379;DHT22;54262;44.642;-0.974;2023-05-16T06:50:29;14.50;99.90
67379;DHT22;54262;44.642;-0.974;2023-05-16T06:52:57;14.60;99.90
67379;DHT22;54262;44.642;-0.974;2023-05-16T06:55:25;14.40;99.90
67379;DHT22;54262;44.642;-0.974;2023-05-16T06:57:50;14.10;99.90
67379;DHT22;54262;44.642;-0.974;2023-05-16T07:00:17;14.50;99.90
67379;DHT22;54262;44.642;-0.974;2023-05-16T07:02:42;14.40;99.90
67379;DHT22;54262;44.642;-0.974;2023-05-16T07:05:08;14.00;99.90
67379;DHT22;54262;44.642;-0.974;2023-05-16T07:07:35;14.10;99.90
67379;DHT22;54262;44.642;-0.974;2023-05-16T07:10:01;14.00;99.90
67379;DHT22;54262;44.642;-0.974;2023-05-16T07:12:27;14.10;99.90
67379;DHT22;54262;44.642;-0.974;2023-05-16T07:14:53;14.30;99.90
67379;DHT22;54262;44.642;-0.974;2023-05-16T07:17:18;14.60;99.90
67379;DHT22;54262;44.642;-0.974;2023-05-16T07:19:44;14.60;99.90
67379;DHT22;54262;44.642;-0.974;2023-05-16T07:22:10;14.40;99.90
67379;DHT22;54262;44.642;-0.974;2023-05-16T07:24:36;14.30;99.90
67379;DHT22;54262;44.642;-0.974;2023-05-16T07:27:02;14.20;99.90
67379;DHT22;54262;44.642;-0.974;2023-05-16T07:29:28;14.30;99.90
67379;DHT22;54262;44.642;-0.974;2023-05-16T07:31:54;13.80;99.90
67379;DHT22;54262;44.642;-0.974;2023-05-16T07:34:20;13.80;99.90
67379;DHT22;54262;44.642;-0.974;2023-05-16T07:36:46;14.70;99.90
67379;DHT22;54262;44.642;-0.974;2023-05-16T07:39:12;14.50;99.90
67379;DHT22;54262;44.642;-0.974;2023-05-16T07:41:37;14.80;99.90
67379;DHT22;54262;44.642;-0.974;2023-05-16T07:44:03;14.30;99.90
67379;DHT22;54262;44.642;-0.974;2023-05-16T07:46:29;14.20;99.90
67379;DHT22;54262;44.642;-0.974;2023-05-16T07:48:54;14.50;99.90
67379;DHT22;54262;44.642;-0.974;2023-05-16T07:51:20;13.90;99.90
67379;DHT22;54262;44.642;-0.974;2023-05-16T07:53:48;14.00;99.90
67379;DHT22;54262;44.642;-0.974;2023-05-16T07:56:16;14.10;99.90
67379;DHT22;54262;44.642;-0.974;2023-05-16T07:58:42;14.20;99.90
67379;DHT22;54262;44.642;-0.974;2023-05-16T08:01:08;13.90;99.90
67379;DHT22;54262;44.642;-0.974;2023-05-16T08:03:34;14.50;99.90
67379;DHT22;54262;44.642;-0.974;2023-05-16T08:06:00;15.50;99.90
67379;DHT22;54262;44.642;-0.974;2023-05-16T08:08:25;15.30;99.90
67379;DHT22;54262;44.642;-0.974;2023-05-16T08:10:51;14.40;99.90
67379;DHT22;54262;44.642;-0.974;2023-05-16T08:13:17;14.50;99.90
67379;DHT22;54262;44.642;-0.974;2023-05-16T08:15:42;14.80;99.90
67379;DHT22;54262;44.642;-0.974;2023-05-16T08:18:13;15.00;99.90
67379;DHT22;54262;44.642;-0.974;2023-05-16T08:20:39;14.80;99.90
67379;DHT22;54262;44.642;-0.974;2023-05-16T08:23:06;14.90;99.90
67379;DHT22;54262;44.642;-0.974;2023-05-16T08:25:32;14.70;99.90
67379;DHT22;54262;44.642;-0.974;2023-05-16T08:27:58;15.40;99.90
67379;DHT22;54262;44.642;-0.974;2023-05-16T08:30:26;15.00;99.90
67379;DHT22;54262;44.642;-0.974;2023-05-16T08:32:52;15.50;99.90
67379;DHT22;54262;44.642;-0.974;2023-05-16T08:35:17;15.40;98.10
67379;DHT22;54262;44.642;-0.974;2023-05-16T08:37:43;15.50;99.90
67379;DHT22;54262;44.642;-0.974;2023-05-16T08:40:09;15.40;94.10
67379;DHT22;54262;44.642;-0.974;2023-05-16T08:42:36;15.50;92.40
67379;DHT22;54262;44.642;-0.974;2023-05-16T08:45:02;15.30;93.20
67379;DHT22;54262;44.642;-0.974;2023-05-16T08:47:30;15.80;91.00
67379;DHT22;54262;44.642;-0.974;2023-05-16T08:49:57;15.30;91.70
67379;DHT22;54262;44.642;-0.974;2023-05-16T08:52:26;15.80;87.10
67379;DHT22;54262;44.642;-0.974;2023-05-16T08:55:00;15.30;85.20
67379;DHT22;54262;44.642;-0.974;2023-05-16T08:57:30;15.60;91.10
67379;DHT22;54262;44.642;-0.974;2023-05-16T08:59:57;15.80;90.50
67379;DHT22;54262;44.642;-0.974;2023-05-16T09:02:23;15.70;78.00
67379;DHT22;54262;44.642;-0.974;2023-05-16T09:04:49;16.50;89.80
67379;DHT22;54262;44.642;-0.974;2023-05-16T09:07:15;16.30;81.20
67379;DHT22;54262;44.642;-0.974;2023-05-16T09:09:41;15.80;74.30
67379;DHT22;54262;44.642;-0.974;2023-05-16T09:12:07;15.80;74.90
67379;DHT22;54262;44.642;-0.974;2023-05-16T09:14:33;15.80;78.10
67379;DHT22;54262;44.642;-0.974;2023-05-16T09:17:07;15.60;73.00
67379;DHT22;54262;44.642;-0.974;2023-05-16T09:19:40;16.20;90.20
67379;DHT22;54262;44.642;-0.974;2023-05-16T09:22:11;15.80;79.20
67379;DHT22;54262;44.642;-0.974;2023-05-16T09:24:39;16.00;77.00
67379;DHT22;54262;44.642;-0.974;2023-05-16T09:27:12;16.70;76.60
67379;DHT22;54262;44.642;-0.974;2023-05-16T09:29:42;16.80;71.60
67379;DHT22;54262;44.642;-0.974;2023-05-16T09:32:15;16.10;73.60
67379;DHT22;54262;44.642;-0.974;2023-05-16T09:34:45;16.30;69.50
67379;DHT22;54262;44.642;-0.974;2023-05-16T09:37:16;15.70;75.50
67379;DHT22;54262;44.642;-0.974;2023-05-16T09:39:47;15.70;67.80
67379;DHT22;54262;44.642;-0.974;2023-05-16T09:42:14;16.60;70.70
67379;DHT22;54262;44.642;-0.974;2023-05-16T09:44:41;16.50;75.20
67379;DHT22;54262;44.642;-0.974;2023-05-16T09:47:06;16.70;70.70
67379;DHT22;54262;44.642;-0.974;2023-05-16T09:49:32;16.20;74.60
67379;DHT22;54262;44.642;-0.974;2023-05-16T09:52:01;15.80;69.60
67379;DHT22;54262;44.642;-0.974;2023-05-16T09:54:32;15.90;73.40
67379;DHT22;54262;44.642;-0.974;2023-05-16T09:57:01;16.20;63.70
67379;DHT22;54262;44.642;-0.974;2023-05-16T09:59:33;16.40;65.50
67379;DHT22;54262;44.642;-0.974;2023-05-16T10:01:59;16.80;62.00
67379;DHT22;54262;44.642;-0.974;2023-05-16T10:04:26;16.60;67.80
67379;DHT22;54262;44.642;-0.974;2023-05-16T10:06:54;16.40;66.40
67379;DHT22;54262;44.642;-0.974;2023-05-16T10:09:22;16.20;62.50
67379;DHT22;54262;44.642;-0.974;2023-05-16T10:11:48;16.40;65.50
67379;DHT22;54262;44.642;-0.974;2023-05-16T10:14:19;16.50;64.60
67379;DHT22;54262;44.642;-0.974;2023-05-16T10:16:47;16.50;63.40
67379;DHT22;54262;44.642;-0.974;2023-05-16T10:19:15;16.20;63.80
67379;DHT22;54262;44.642;-0.974;2023-05-16T10:21:44;16.50;67.00
67379;DHT22;54262;44.642;-0.974;2023-05-16T10:24:15;16.80;63.00
67379;DHT22;54262;44.642;-0.974;2023-05-16T10:26:42;17.40;59.40
67379;DHT22;54262;44.642;-0.974;2023-05-16T10:29:08;17.00;61.40
67379;DHT22;54262;44.642;-0.974;2023-05-16T10:31:35;16.80;56.80
67379;DHT22;54262;44.642;-0.974;2023-05-16T10:34:01;16.90;58.10
67379;DHT22;54262;44.642;-0.974;2023-05-16T10:36:28;16.50;60.70
67379;DHT22;54262;44.642;-0.974;2023-05-16T10:38:54;16.80;61.00
67379;DHT22;54262;44.642;-0.974;2023-05-16T10:41:20;16.70;55.50
67379;DHT22;54262;44.642;-0.974;2023-05-16T10:43:56;16.90;61.80
67379;DHT22;54262;44.642;-0.974;2023-05-16T10:46:22;17.10;68.60
67379;DHT22;54262;44.642;-0.974;2023-05-16T10:48:48;17.10;62.10
67379;DHT22;54262;44.642;-0.974;2023-05-16T10:51:36;17.30;63.50
67379;DHT22;54262;44.642;-0.974;2023-05-16T10:54:10;17.80;53.80
67379;DHT22;54262;44.642;-0.974;2023-05-16T10:56:39;17.10;57.70
67379;DHT22;54262;44.642;-0.974;2023-05-16T10:59:23;17.30;57.90
67379;DHT22;54262;44.642;-0.974;2023-05-16T11:01:53;17.00;57.90
67379;DHT22;54262;44.642;-0.974;2023-05-16T11:04:19;17.20;57.90
67379;DHT22;54262;44.642;-0.974;2023-05-16T11:06:49;17.40;58.00
67379;DHT22;54262;44.642;-0.974;2023-05-16T11:14:26;17.50;54.90
67379;DHT22;54262;44.642;-0.974;2023-05-16T11:19:43;17.50;53.80
67379;DHT22;54262;44.642;-0.974;2023-05-16T11:22:12;17.00;52.20
67379;DHT22;54262;44.642;-0.974;2023-05-16T11:24:53;16.90;50.00
67379;DHT22;54262;44.642;-0.974;2023-05-16T11:32:37;16.90;56.70
67379;DHT22;54262;44.642;-0.974;2023-05-16T11:35:08;17.50;57.00
67379;DHT22;54262;44.642;-0.974;2023-05-16T11:37:35;17.80;58.00
67379;DHT22;54262;44.642;-0.974;2023-05-16T11:40:05;17.60;55.80
67379;DHT22;54262;44.642;-0.974;2023-05-16T11:42:43;17.20;56.20
67379;DHT22;54262;44.642;-0.974;2023-05-16T11:45:20;17.80;53.90
67379;DHT22;54262;44.642;-0.974;2023-05-16T11:47:50;17.60;53.60
67379;DHT22;54262;44.642;-0.974;2023-05-16T11:50:18;17.20;52.00
67379;DHT22;54262;44.642;-0.974;2023-05-16T11:52:47;17.80;51.90
67379;DHT22;54262;44.642;-0.974;2023-05-16T11:55:15;17.70;54.00
67379;DHT22;54262;44.642;-0.974;2023-05-16T11:57:42;17.50;53.20
67379;DHT22;54262;44.642;-0.974;2023-05-16T12:00:17;17.80;57.40
67379;DHT22;54262;44.642;-0.974;2023-05-16T12:02:47;18.60;51.20
67379;DHT22;54262;44.642;-0.974;2023-05-16T12:05:14;18.40;52.50
67379;DHT22;54262;44.642;-0.974;2023-05-16T12:07:45;18.30;52.50
67379;DHT22;54262;44.642;-0.974;2023-05-16T12:10:13;18.20;51.90
67379;DHT22;54262;44.642;-0.974;2023-05-16T12:12:44;18.40;54.50
67379;DHT22;54262;44.642;-0.974;2023-05-16T12:15:11;17.50;50.80
67379;DHT22;54262;44.642;-0.974;2023-05-16T12:17:38;18.00;60.10
67379;DHT22;54262;44.642;-0.974;2023-05-16T12:20:05;17.80;50.80
67379;DHT22;54262;44.642;-0.974;2023-05-16T12:22:34;17.30;54.70
67379;DHT22;54262;44.642;-0.974;2023-05-16T12:27:45;17.70;49.50
67379;DHT22;54262;44.642;-0.974;2023-05-16T12:30:11;18.30;53.60
67379;DHT22;54262;44.642;-0.974;2023-05-16T12:32:37;19.50;51.30
67379;DHT22;54262;44.642;-0.974;2023-05-16T12:35:03;19.00;48.10
67379;DHT22;54262;44.642;-0.974;2023-05-16T12:37:29;18.50;48.00
67379;DHT22;54262;44.642;-0.974;2023-05-16T12:40:00;18.00;47.80
67379;DHT22;54262;44.642;-0.974;2023-05-16T12:42:28;17.90;48.60
67379;DHT22;54262;44.642;-0.974;2023-05-16T12:44:55;18.30;58.70
67379;DHT22;54262;44.642;-0.974;2023-05-16T12:47:21;18.30;51.80
67379;DHT22;54262;44.642;-0.974;2023-05-16T12:49:47;18.30;53.10
67379;DHT22;54262;44.642;-0.974;2023-05-16T12:52:19;18.20;50.20
67379;DHT22;54262;44.642;-0.974;2023-05-16T12:54:46;17.90;50.10
67379;DHT22;54262;44.642;-0.974;2023-05-16T12:57:13;18.70;55.80
67379;DHT22;54262;44.642;-0.974;2023-05-16T12:59:39;19.20;48.50
67379;DHT22;54262;44.642;-0.974;2023-05-16T13:02:07;18.00;46.60
67379;DHT22;54262;44.642;-0.974;2023-05-16T13:04:35;18.00;47.80
67379;DHT22;54262;44.642;-0.974;2023-05-16T13:07:01;18.10;47.90
67379;DHT22;54262;44.642;-0.974;2023-05-16T13:09:28;18.60;45.30
67379;DHT22;54262;44.642;-0.974;2023-05-16T13:11:55;19.40;45.10
67379;DHT22;54262;44.642;-0.974;2023-05-16T13:14:21;19.10;46.80
67379;DHT22;54262;44.642;-0.974;2023-05-16T13:16:47;19.10;45.70
67379;DHT22;54262;44.642;-0.974;2023-05-16T13:19:12;18.60;48.70
67379;DHT22;54262;44.642;-0.974;2023-05-16T13:21:38;18.20;45.60
67379;DHT22;54262;44.642;-0.974;2023-05-16T13:24:04;18.80;46.90
67379;DHT22;54262;44.642;-0.974;2023-05-16T13:26:30;18.80;44.60
67379;DHT22;54262;44.642;-0.974;2023-05-16T13:28:55;18.90;46.90
67379;DHT22;54262;44.642;-0.974;2023-05-16T13:31:21;18.40;46.20
67379;DHT22;54262;44.642;-0.974;2023-05-16T13:33:47;18.40;44.30
67379;DHT22;54262;44.642;-0.974;2023-05-16T13:36:13;18.60;44.80
67379;DHT22;54262;44.642;-0.974;2023-05-16T13:38:39;18.90;44.00
67379;DHT22;54262;44.642;-0.974;2023-05-16T13:41:05;19.20;45.70
67379;DHT22;54262;44.642;-0.974;2023-05-16T13:43:31;19.20;44.50
67379;DHT22;54262;44.642;-0.974;2023-05-16T13:45:57;19.00;44.20
67379;DHT22;54262;44.642;-0.974;2023-05-16T13:48:22;18.70;45.90
67379;DHT22;54262;44.642;-0.974;2023-05-16T13:50:49;18.60;48.20
67379;DHT22;54262;44.642;-0.974;2023-05-16T13:53:16;19.70;47.90
67379;DHT22;54262;44.642;-0.974;2023-05-16T13:55:42;19.90;46.60
67379;DHT22;54262;44.642;-0.974;2023-05-16T13:58:07;19.20;43.90
67379;DHT22;54262;44.642;-0.974;2023-05-16T14:00:36;18.90;42.80
67379;DHT22;54262;44.642;-0.974;2023-05-16T14:03:04;19.00;47.50
67379;DHT22;54262;44.642;-0.974;2023-05-16T14:05:32;18.90;44.40
67379;DHT22;54262;44.642;-0.974;2023-05-16T14:07:57;18.70;45.50
67379;DHT22;54262;44.642;-0.974;2023-05-16T14:10:23;19.20;43.50
67379;DHT22;54262;44.642;-0.974;2023-05-16T14:12:49;19.50;42.30
67379;DHT22;54262;44.642;-0.974;2023-05-16T14:15:15;19.00;44.00
67379;DHT22;54262;44.642;-0.974;2023-05-16T14:17:41;19.00;43.00
67379;DHT22;54262;44.642;-0.974;2023-05-16T14:20:07;18.50;43.60
67379;DHT22;54262;44.642;-0.974;2023-05-16T14:22:34;18.80;46.70
67379;DHT22;54262;44.642;-0.974;2023-05-16T14:25:00;18.80;42.90
67379;DHT22;54262;44.642;-0.974;2023-05-16T14:27:26;18.90;43.40
67379;DHT22;54262;44.642;-0.974;2023-05-16T14:29:51;19.40;42.40
67379;DHT22;54262;44.642;-0.974;2023-05-16T14:32:17;19.20;40.00
67379;DHT22;54262;44.642;-0.974;2023-05-16T14:34:42;19.20;42.00
67379;DHT22;54262;44.642;-0.974;2023-05-16T14:37:08;19.80;40.60
67379;DHT22;54262;44.642;-0.974;2023-05-16T14:39:35;19.50;41.10
67379;DHT22;54262;44.642;-0.974;2023-05-16T14:42:01;19.70;43.10
67379;DHT22;54262;44.642;-0.974;2023-05-16T14:44:26;19.20;42.00
67379;DHT22;54262;44.642;-0.974;2023-05-16T14:46:52;19.10;42.00
67379;DHT22;54262;44.642;-0.974;2023-05-16T14:49:18;18.50;42.20
67379;DHT22;54262;44.642;-0.974;2023-05-16T14:51:43;18.70;43.50
67379;DHT22;54262;44.642;-0.974;2023-05-16T14:54:13;19.50;41.00
67379;DHT22;54262;44.642;-0.974;2023-05-16T14:56:39;19.00;40.00
67379;DHT22;54262;44.642;-0.974;2023-05-16T14:59:05;19.30;43.30
67379;DHT22;54262;44.642;-0.974;2023-05-16T15:01:30;19.10;39.90
67379;DHT22;54262;44.642;-0.974;2023-05-16T15:03:58;18.70;41.40
67379;DHT22;54262;44.642;-0.974;2023-05-16T15:06:26;18.90;40.80
67379;DHT22;54262;44.642;-0.974;2023-05-16T15:08:52;18.60;43.70
67379;DHT22;54262;44.642;-0.974;2023-05-16T15:11:18;19.20;43.40
67379;DHT22;54262;44.642;-0.974;2023-05-16T15:13:43;19.30;42.50
67379;DHT22;54262;44.642;-0.974;2023-05-16T15:16:09;18.80;44.10
67379;DHT22;54262;44.642;-0.974;2023-05-16T15:18:35;19.30;43.00
67379;DHT22;54262;44.642;-0.974;2023-05-16T15:21:01;19.40;43.80
67379;DHT22;54262;44.642;-0.974;2023-05-16T15:23:26;19.50;42.10
67379;DHT22;54262;44.642;-0.974;2023-05-16T15:25:52;19.50;42.50
67379;DHT22;54262;44.642;-0.974;2023-05-16T15:28:19;19.50;43.90
67379;DHT22;54262;44.642;-0.974;2023-05-16T15:30:44;18.80;44.10
67379;DHT22;54262;44.642;-0.974;2023-05-16T15:33:10;18.80;41.50
67379;DHT22;54262;44.642;-0.974;2023-05-16T15:35:35;18.80;43.30
67379;DHT22;54262;44.642;-0.974;2023-05-16T15:38:01;19.40;40.50
67379;DHT22;54262;44.642;-0.974;2023-05-16T15:40:27;19.20;42.00
67379;DHT22;54262;44.642;-0.974;2023-05-16T15:42:53;19.20;42.70